Time;durP1;ratioP1;P1;durP2;ratioP2;P2;SDS_P1;SDS_P2;PMS_P1;PMS_P2;Temp;Humidity;BMP_temperature;BMP_pressure;BME280_temperature;BME280_humidity;BME280_pressure;Samples;Min_cycle;Max_cycle;Signal;HPM_P1;HPM_P2
2021/05/08 00:01:01;;;;;;;1.77;1.47;;;3.00;99.90;1.90;97082.00;;;;5087500;28;20429;-54
2021/05/08 00:03:49;;;;;;;1.97;1.73;;;2.90;99.90;1.90;97083.00;;;;5095947;28;20438;-54
2021/05/08 00:06:37;;;;;;;1.20;1.10;;;2.90;99.90;1.80;97084.00;;;;5101625;28;20418;-56
2021/05/08 00:09:28;;;;;;;2.73;1.83;;;2.90;99.90;1.80;97080.00;;;;5088908;28;21057;-55
2021/05/08 00:12:17;;;;;;;1.30;1.20;;;2.80;99.90;1.70;97084.00;;;;5087385;28;20928;-51
2021/05/08 00:15:08;;;;;;;1.80;1.70;;;2.80;99.90;1.60;97079.00;;;;5088582;28;20448;-53
2021/05/08 00:17:55;;;;;;;2.00;1.40;;;2.70;99.90;1.60;97078.00;;;;5100407;28;20436;-54
2021/05/08 00:20:43;;;;;;;1.43;1.30;;;2.70;99.90;1.60;97073.00;;;;5087234;28;20422;-56
2021/05/08 00:23:31;;;;;;;1.43;1.33;;;2.70;99.90;1.60;97083.00;;;;5088357;28;20584;-54
2021/05/08 00:26:20;;;;;;;1.43;1.33;;;2.70;99.90;1.60;97078.00;;;;5088081;28;20440;-54
2021/05/08 00:29:07;;;;;;;1.17;1.13;;;2.60;99.90;1.50;97076.00;;;;5088592;28;20461;-54
2021/05/08 00:31:55;;;;;;;2.47;1.73;;;2.60;99.90;1.50;97076.00;;;;5088138;28;21156;-55
2021/05/08 00:34:43;;;;;;;2.33;2.13;;;2.60;99.90;1.30;97075.00;;;;5087510;28;20466;-54
2021/05/08 00:37:31;;;;;;;1.40;1.30;;;2.50;99.90;1.40;97086.00;;;;5087773;28;20441;-54
2021/05/08 00:40:18;;;;;;;4.60;2.00;;;2.50;99.90;1.30;97085.00;;;;5087522;28;20434;-55
2021/05/08 00:43:07;;;;;;;1.40;1.30;;;2.40;99.90;1.30;97084.00;;;;5086454;28;20448;-54
2021/05/08 00:45:55;;;;;;;1.53;1.43;;;2.40;99.90;1.30;97086.00;;;;5085946;28;20429;-55
2021/05/08 00:48:43;;;;;;;1.70;1.60;;;2.40;99.90;1.20;97082.00;;;;5084805;28;20980;-54
2021/05/08 00:51:31;;;;;;;1.67;1.57;;;2.40;99.90;1.10;97080.00;;;;5084589;28;20520;-54
2021/05/08 00:54:19;;;;;;;1.73;1.60;;;2.30;99.90;0.90;97082.00;;;;5085427;28;20567;-52
2021/05/08 00:57:07;;;;;;;2.03;1.90;;;2.20;99.90;1.00;97093.00;;;;5086301;28;20613;-54
2021/05/08 00:59:56;;;;;;;1.00;1.00;;;2.10;99.90;0.90;97091.00;;;;5085519;28;21058;-53
2021/05/08 01:02:44;;;;;;;2.07;1.87;;;2.10;99.90;1.00;97098.00;;;;5093947;28;20452;-56
2021/05/08 01:05:32;;;;;;;2.07;1.87;;;3.20;99.90;1.00;97093.00;;;;5085034;28;20933;-54
2021/05/08 01:08:21;;;;;;;1.63;1.50;;;2.10;99.90;1.00;97104.00;;;;5086490;28;20465;-50
2021/05/08 01:11:09;;;;;;;1.73;1.63;;;2.10;99.90;1.10;97097.00;;;;5085197;28;20440;-56
2021/05/08 01:13:57;;;;;;;1.90;1.77;;;2.10;99.90;1.20;97096.00;;;;5083230;28;20452;-53
2021/05/08 01:16:48;;;;;;;1.53;1.43;;;2.10;99.90;1.10;97088.00;;;;5085119;28;20425;-54
2021/05/08 01:19:36;;;;;;;1.67;1.57;;;2.10;99.90;0.80;97086.00;;;;5085038;28;20805;-53
2021/05/08 01:22:25;;;;;;;1.60;1.10;;;2.10;99.90;0.90;97090.00;;;;5084467;28;20442;-54
2021/05/08 01:25:17;;;;;;;1.30;1.20;;;2.10;99.90;0.70;97091.00;;;;5084568;28;20437;-54
2021/05/08 01:28:05;;;;;;;2.07;1.60;;;2.00;99.90;0.80;97103.00;;;;5085298;28;20469;-52
2021/05/08 01:30:52;;;;;;;1.07;0.97;;;1.90;99.90;0.90;97101.00;;;;5084506;28;20422;-54
2021/05/08 01:33:42;;;;;;;1.17;1.13;;;1.90;99.90;1.00;97103.00;;;;5084588;28;20441;-55
2021/05/08 01:36:32;;;;;;;1.30;1.20;;;2.00;99.90;0.90;97104.00;;;;5104941;27;20419;-52
2021/05/08 01:39:20;;;;;;;2.80;1.53;;;1.90;99.90;0.90;97106.00;;;;5083460;28;20436;-55
2021/05/08 01:42:08;;;;;;;1.80;1.53;;;2.00;99.90;1.00;97110.00;;;;5084275;28;20461;-55
2021/05/08 01:44:57;;;;;;;1.57;1.47;;;2.00;99.90;0.90;97102.00;;;;5084475;28;20468;-53
2021/05/08 01:47:46;;;;;;;1.70;1.57;;;2.00;99.90;0.70;97106.00;;;;5084685;28;20461;-57
2021/05/08 01:50:34;;;;;;;7.40;1.50;;;1.90;99.90;0.60;97107.00;;;;5084897;28;20482;-57
2021/05/08 01:53:22;;;;;;;2.03;1.30;;;1.90;99.90;0.70;97107.00;;;;5083916;28;20425;-58
2021/05/08 01:56:11;;;;;;;3.00;1.10;;;1.80;99.90;0.70;97115.00;;;;5084135;28;20430;-55
2021/05/08 01:58:59;;;;;;;2.57;1.20;;;1.80;99.90;0.50;97114.00;;;;5085149;28;20972;-56
2021/05/08 02:01:47;;;;;;;1.23;1.13;;;1.80;99.90;0.30;97116.00;;;;5085598;28;20844;-56
2021/05/08 02:04:34;;;;;;;1.63;1.53;;;1.70;99.90;0.40;97114.00;;;;5086519;28;20478;-57
2021/05/08 02:07:22;;;;;;;1.63;1.53;;;1.60;99.90;0.50;97109.00;;;;5083845;28;20452;-55
2021/05/08 02:10:13;;;;;;;1.27;1.23;;;1.60;99.90;0.10;97105.00;;;;5084261;28;20952;-53
2021/05/08 02:13:03;;;;;;;1.70;1.60;;;1.50;99.90;0.10;97117.00;;;;5077725;28;20521;-56
2021/05/08 02:15:51;;;;;;;6.57;1.67;;;1.40;99.90;0.00;97116.00;;;;5084452;28;20963;-56
2021/05/08 02:18:39;;;;;;;1.53;1.43;;;1.40;99.90;0.10;97117.00;;;;5085353;28;20743;-56
2021/05/08 02:21:27;;;;;;;1.97;1.83;;;1.30;99.90;0.20;97121.00;;;;5085099;28;20441;-56
2021/05/08 02:24:14;;;;;;;1.57;1.20;;;1.20;99.90;0.30;97120.00;;;;5082191;28;20437;-57
2021/05/08 02:27:02;;;;;;;1.50;1.40;;;1.30;99.90;0.00;97111.00;;;;5083334;28;20434;-57
2021/05/08 02:29:51;;;;;;;1.30;1.20;;;1.30;99.90;-0.10;97121.00;;;;5084501;28;20970;-57
2021/05/08 02:32:39;;;;;;;4.10;2.27;;;1.20;99.90;-0.20;97122.00;;;;5084954;28;20872;-57
2021/05/08 02:35:28;;;;;;;1.90;1.73;;;1.10;99.90;-0.10;97119.00;;;;5085323;28;20425;-56
2021/05/08 02:38:16;;;;;;;2.53;1.67;;;1.10;99.90;-0.10;97123.00;;;;5088773;28;20441;-57
2021/05/08 02:41:04;;;;;;;1.50;1.43;;;1.00;99.90;0.00;97118.00;;;;5088544;28;20429;-56
2021/05/08 02:43:51;;;;;;;1.40;1.30;;;1.10;99.90;-0.30;97114.00;;;;5088495;28;20760;-56
2021/05/08 02:46:40;;;;;;;2.53;2.10;;;1.00;99.90;-0.20;97128.00;;;;5088622;28;20425;-54
2021/05/08 02:49:28;;;;;;;2.03;1.23;;;1.00;99.90;-0.20;97116.00;;;;5086781;28;20472;-56
2021/05/08 02:52:16;;;;;;;2.20;2.03;;;1.00;99.90;-0.20;97123.00;;;;5087914;28;20444;-56
2021/05/08 02:55:06;;;;;;;2.20;2.00;;;1.00;99.90;-0.40;97124.00;;;;5089286;28;20440;-58
2021/05/08 02:57:54;;;;;;;1.50;1.40;;;0.90;99.90;-0.40;97121.00;;;;5087174;28;20422;-57
2021/05/08 03:00:42;;;;;;;1.50;1.40;;;0.90;99.90;-0.30;97132.00;;;;5087952;28;20809;-58
2021/05/08 03:03:30;;;;;;;1.97;1.73;;;0.80;99.90;-0.50;97128.00;;;;5099213;28;20585;-56
2021/05/08 03:06:18;;;;;;;1.93;1.83;;;0.80;99.90;-0.50;97136.00;;;;5086005;28;20791;-55
2021/05/08 03:09:06;;;;;;;1.87;1.73;;;0.80;99.90;-0.60;97132.00;;;;5095226;28;20922;-57
2021/05/08 03:11:54;;;;;;;1.50;1.40;;;0.70;99.90;-0.60;97138.00;;;;5087030;28;20449;-58
2021/05/08 03:14:42;;;;;;;1.63;1.53;;;0.70;99.90;-0.70;97127.00;;;;5087299;28;20433;-56
2021/05/08 03:17:30;;;;;;;3.67;1.70;;;0.60;99.90;-0.60;97145.00;;;;5088609;28;20813;-56
2021/05/08 03:20:22;;;;;;;1.10;1.10;;;0.70;99.90;-0.70;97136.00;;;;5087275;28;20422;-57
2021/05/08 03:23:10;;;;;;;1.70;1.43;;;0.60;99.90;-0.90;97139.00;;;;5088012;28;20599;-57
2021/05/08 03:25:57;;;;;;;2.10;1.67;;;0.50;99.90;-1.00;97138.00;;;;5088403;28;20961;-56
2021/05/08 03:28:45;;;;;;;2.63;2.30;;;0.50;99.90;-0.90;97148.00;;;;5086897;28;21119;-56
2021/05/08 03:31:33;;;;;;;1.77;1.63;;;0.40;99.90;-0.90;97147.00;;;;5088150;28;20441;-56
2021/05/08 03:34:21;;;;;;;1.57;1.47;;;0.30;99.90;-0.80;97154.00;;;;5085902;28;20975;-59
2021/05/08 03:37:10;;;;;;;1.83;1.73;;;0.40;99.90;-0.90;97142.00;;;;5107255;27;20425;-54
2021/05/08 03:39:58;;;;;;;2.30;2.10;;;0.40;99.90;-0.80;97154.00;;;;5106867;27;20971;-55
2021/05/08 03:42:46;;;;;;;2.17;1.97;;;0.40;99.90;-0.90;97155.00;;;;5099521;27;20448;-55
2021/05/08 03:45:34;;;;;;;1.97;1.83;;;0.40;99.90;-0.80;97158.00;;;;5086962;28;20441;-57
2021/05/08 03:48:23;;;;;;;2.07;1.93;;;0.40;99.90;-0.90;97156.00;;;;5086826;28;20477;-56
2021/05/08 03:51:11;;;;;;;2.97;1.80;;;0.40;99.90;-0.80;97159.00;;;;5086830;28;20426;-56
2021/05/08 03:54:00;;;;;;;2.63;2.00;;;0.40;99.90;-0.70;97172.00;;;;5086871;28;20422;-55
2021/05/08 03:56:48;;;;;;;2.20;1.60;;;0.40;99.90;-0.60;97163.00;;;;5111301;27;20952;-53
2021/05/08 03:59:36;;;;;;;1.90;1.60;;;0.40;99.90;-0.50;97165.00;;;;5088445;28;20488;-54
2021/05/08 04:02:23;;;;;;;1.90;1.80;;;0.50;99.90;-0.70;97160.00;;;;5094432;28;20459;-56
2021/05/08 04:05:12;;;;;;;1.23;1.13;;;0.60;99.90;-0.80;97174.00;;;;5087154;28;20433;-54
2021/05/08 04:08:00;;;;;;;2.40;2.20;;;0.50;99.90;-0.80;97165.00;;;;5087975;28;20473;-54
2021/05/08 04:10:49;;;;;;;2.07;1.87;;;0.40;99.90;-0.80;97175.00;;;;5086647;28;20418;-55
2021/05/08 04:13:37;;;;;;;1.63;1.53;;;0.50;99.90;-0.70;97185.00;;;;5086233;28;20437;-57
2021/05/08 04:16:25;;;;;;;1.80;1.70;;;0.40;99.90;-0.70;97186.00;;;;5087091;28;20441;-52
2021/05/08 04:19:13;;;;;;;3.40;1.60;;;0.40;99.90;-0.80;97197.00;;;;5087174;28;20445;-54
2021/05/08 04:22:00;;;;;;;2.13;1.93;;;0.50;99.90;-0.70;97187.00;;;;5086600;28;20446;-56
2021/05/08 04:24:48;;;;;;;1.93;1.70;;;0.40;99.90;-0.70;97183.00;;;;5086222;28;20803;-53
2021/05/08 04:27:37;;;;;;;2.17;1.87;;;0.40;99.90;-0.80;97190.00;;;;5086208;28;20823;-55
2021/05/08 04:30:25;;;;;;;4.40;1.90;;;0.50;99.90;-0.60;97188.00;;;;5086450;28;20426;-50
2021/05/08 04:33:16;;;;;;;1.73;1.60;;;0.50;99.90;-0.60;97190.00;;;;5080159;28;20619;-52
2021/05/08 04:36:05;;;;;;;2.90;1.73;;;0.50;99.90;-0.50;97195.00;;;;5086899;28;20433;-54
2021/05/08 04:38:53;;;;;;;2.57;2.17;;;0.60;99.90;-0.50;97188.00;;;;5086318;28;20437;-53
2021/05/08 04:41:41;;;;;;;2.70;2.30;;;0.60;99.90;-0.50;97183.00;;;;5086008;28;20457;-57
2021/05/08 04:44:30;;;;;;;4.00;1.97;;;0.60;99.90;-0.40;97194.00;;;;5085130;28;20944;-56
2021/05/08 04:47:20;;;;;;;2.73;2.40;;;0.70;99.90;-0.30;97191.00;;;;5102127;27;20824;-56
2021/05/08 04:50:10;;;;;;;1.77;1.67;;;0.80;99.90;-0.20;97193.00;;;;5094534;28;20545;-55
2021/05/08 04:52:58;;;;;;;7.30;4.57;;;0.80;99.90;-0.20;97204.00;;;;5085688;28;20536;-54
2021/05/08 04:55:47;;;;;;;3.30;3.00;;;0.90;99.90;-0.10;97196.00;;;;5085172;28;20428;-53
2021/05/08 04:58:35;;;;;;;3.87;2.83;;;1.00;99.90;0.00;97200.00;;;;5085169;28;20812;-55
2021/05/08 05:01:23;;;;;;;3.13;2.90;;;1.00;99.90;0.30;97187.00;;;;5084512;28;20996;-55
2021/05/08 05:04:11;;;;;;;2.50;2.30;;;1.20;99.90;0.50;97195.00;;;;5085529;28;20418;-54
2021/05/08 05:07:00;;;;;;;2.00;1.77;;;1.30;99.90;0.60;97194.00;;;;5085775;28;20430;-56
2021/05/08 05:09:48;;;;;;;2.47;1.90;;;1.50;99.90;0.70;97199.00;;;;5084770;28;20472;-56
2021/05/08 05:12:36;;;;;;;1.97;1.60;;;1.60;99.90;0.80;97197.00;;;;5084567;28;20511;-56
2021/05/08 05:15:25;;;;;;;1.57;1.47;;;1.70;99.90;0.70;97207.00;;;;5084327;28;20430;-57
2021/05/08 05:18:14;;;;;;;2.40;1.97;;;1.70;99.90;0.90;97205.00;;;;5084175;28;20453;-56
2021/05/08 05:21:02;;;;;;;2.50;2.00;;;1.80;99.90;1.10;97208.00;;;;5083798;28;20426;-56
2021/05/08 05:23:50;;;;;;;3.17;2.20;;;1.90;99.90;1.40;97206.00;;;;5075663;28;20428;-55
2021/05/08 05:26:38;;;;;;;1.50;1.40;;;2.10;99.90;1.50;97199.00;;;;5085991;28;20433;-54
2021/05/08 05:29:26;;;;;;;1.40;1.30;;;2.20;99.90;1.50;97199.00;;;;5084131;28;20468;-56
2021/05/08 05:32:14;;;;;;;1.87;1.77;;;2.30;99.90;1.70;97202.00;;;;5099859;28;20566;-57
2021/05/08 05:35:03;;;;;;;1.40;1.30;;;2.50;99.90;1.90;97209.00;;;;5098293;28;20421;-55
2021/05/08 05:37:58;;;;;;;1.93;1.70;;;2.60;99.90;2.10;97207.00;;;;5086225;28;20449;-56
2021/05/08 05:40:46;;;;;;;4.13;1.43;;;2.70;99.90;2.20;97220.00;;;;5091983;28;20449;-53
2021/05/08 05:43:34;;;;;;;1.97;1.73;;;2.90;99.90;2.30;97216.00;;;;5088070;28;20442;-58
2021/05/08 05:46:22;;;;;;;1.93;1.47;;;3.10;99.90;2.40;97216.00;;;;5087472;28;20790;-57
2021/05/08 05:49:10;;;;;;;1.40;1.30;;;3.20;99.90;2.50;97218.00;;;;5085011;28;20537;-56
2021/05/08 05:51:58;;;;;;;1.70;1.60;;;3.30;99.90;2.60;97212.00;;;;5095445;28;20450;-55
2021/05/08 05:54:47;;;;;;;1.60;1.50;;;3.40;99.90;2.90;97214.00;;;;5093523;28;20467;-55
2021/05/08 05:57:35;;;;;;;1.53;1.43;;;3.60;99.90;3.10;97219.00;;;;5091604;28;20962;-56
2021/05/08 06:00:24;;;;;;;2.00;1.90;;;3.70;99.90;3.30;97215.00;;;;5091208;28;20428;-55
2021/05/08 06:03:11;;;;;;;1.70;1.60;;;3.90;99.90;3.50;97217.00;;;;5091702;28;20450;-57
2021/05/08 06:05:59;;;;;;;2.10;1.90;;;4.10;99.90;3.80;97223.00;;;;5089753;28;20467;-55
2021/05/08 06:08:48;;;;;;;2.10;1.73;;;4.30;99.90;3.90;97229.00;;;;5086573;28;20484;-56
2021/05/08 06:11:36;;;;;;;2.83;1.70;;;4.50;99.90;4.00;97221.00;;;;5090374;28;20460;-56
2021/05/08 06:14:25;;;;;;;2.10;2.00;;;4.60;99.90;4.30;97222.00;;;;5087649;28;20268;-56
2021/05/08 06:17:13;;;;;;;2.43;1.83;;;4.80;99.90;4.50;97221.00;;;;5106778;28;20214;-57
2021/05/08 06:20:01;;;;;;;3.40;2.27;;;5.00;99.90;4.90;97212.00;;;;5098846;28;20572;-55
2021/05/08 06:22:49;;;;;;;2.83;1.90;;;5.30;99.90;4.80;97223.00;;;;5087945;28;20219;-55
2021/05/08 06:25:37;;;;;;;2.40;2.10;;;5.50;99.90;5.10;97224.00;;;;5088147;28;20210;-57
2021/05/08 06:28:25;;;;;;;4.10;3.13;;;5.60;99.90;5.40;97213.00;;;;5098174;28;21188;-56
2021/05/08 06:31:13;;;;;;;2.37;2.23;;;5.80;99.90;5.60;97225.00;;;;5103378;28;20578;-57
2021/05/08 06:34:01;;;;;;;1.73;1.63;;;6.00;99.90;5.80;97223.00;;;;5105466;28;20205;-57
2021/05/08 06:36:49;;;;;;;4.60;2.60;;;6.20;99.90;6.10;97222.00;;;;5101850;28;20223;-56
2021/05/08 06:39:37;;;;;;;3.37;2.40;;;6.50;99.90;6.50;97228.00;;;;5101103;28;20194;-55
2021/05/08 06:42:26;;;;;;;3.20;2.43;;;6.70;99.90;6.70;97233.00;;;;5089209;28;20230;-57
2021/05/08 06:45:14;;;;;;;3.80;2.57;;;7.00;99.90;7.00;97228.00;;;;5095036;28;20207;-56
2021/05/08 06:48:01;;;;;;;3.47;2.57;;;7.20;99.90;7.20;97232.00;;;;5094960;28;20207;-57
2021/05/08 06:50:49;;;;;;;2.40;2.20;;;7.40;99.90;7.40;97230.00;;;;5106547;28;20225;-57
2021/05/08 06:53:37;;;;;;;3.03;2.17;;;7.70;99.90;7.60;97226.00;;;;5097847;28;20218;-55
2021/05/08 06:56:26;;;;;;;2.70;2.23;;;7.90;99.90;7.90;97233.00;;;;5093922;28;20620;-56
2021/05/08 06:59:14;;;;;;;5.80;2.43;;;8.10;99.90;8.20;97223.00;;;;5097155;28;20198;-56
2021/05/08 07:02:04;;;;;;;5.30;2.50;;;8.40;99.90;8.40;97222.00;;;;5096633;28;20269;-55
2021/05/08 07:04:52;;;;;;;3.90;2.40;;;8.60;99.90;8.60;97230.00;;;;5106591;28;20214;-55
2021/05/08 07:07:40;;;;;;;2.43;1.87;;;8.80;99.90;8.70;97226.00;;;;5094086;28;20207;-56
2021/05/08 07:10:28;;;;;;;1.73;1.63;;;9.00;99.90;8.90;97231.00;;;;5090198;28;20230;-57
2021/05/08 07:13:16;;;;;;;2.70;1.77;;;9.20;99.90;9.10;97231.00;;;;5089042;28;20605;-55
2021/05/08 07:16:13;;;;;;;1.80;1.57;;;9.40;99.90;9.10;97228.00;;;;5100347;28;20199;-56
2021/05/08 07:19:00;;;;;;;1.70;1.57;;;9.50;99.90;9.30;97245.00;;;;5102111;28;20207;-57
2021/05/08 07:21:48;;;;;;;2.40;1.30;;;9.60;99.90;9.50;97239.00;;;;5093349;28;20222;-57
2021/05/08 07:24:37;;;;;;;3.07;1.73;;;9.80;99.90;9.60;97248.00;;;;5095640;28;20195;-58
2021/05/08 07:27:25;;;;;;;1.57;1.47;;;9.90;99.90;9.90;97249.00;;;;5096303;28;20195;-53
2021/05/08 07:30:14;;;;;;;1.30;1.20;;;10.10;99.90;10.10;97253.00;;;;5086475;28;20234;-58
2021/05/08 07:33:04;;;;;;;3.27;1.40;;;10.30;99.90;10.30;97253.00;;;;5090772;28;20280;-58
2021/05/08 07:35:52;;;;;;;1.73;1.40;;;10.50;99.90;10.40;97254.00;;;;5095521;28;20206;-57
2021/05/08 07:38:40;;;;;;;1.33;1.20;;;10.70;99.90;10.40;97248.00;;;;5100565;28;20222;-57
2021/05/08 07:41:28;;;;;;;1.60;1.10;;;10.80;93.90;10.70;97238.00;;;;5096120;28;20253;-58
2021/05/08 07:44:16;;;;;;;1.90;1.80;;;10.90;90.50;10.80;97240.00;;;;5089742;28;20587;-59
2021/05/08 07:47:05;;;;;;;6.93;1.30;;;11.10;92.10;11.00;97240.00;;;;5105831;28;20233;-57
2021/05/08 07:49:54;;;;;;;1.50;1.33;;;11.30;85.60;10.60;97232.00;;;;5098830;28;20231;-56
2021/05/08 07:52:41;;;;;;;3.30;1.13;;;11.30;69.60;11.00;97235.00;;;;5103279;28;20225;-57
2021/05/08 07:55:30;;;;;;;1.63;1.50;;;11.40;73.00;10.80;97233.00;;;;5104033;28;20204;-56
2021/05/08 07:58:18;;;;;;;2.20;2.00;;;11.40;69.60;11.10;97242.00;;;;5102982;28;20199;-58
2021/05/08 08:01:06;;;;;;;1.63;1.37;;;11.50;70.80;11.00;97234.00;;;;5105337;28;20203;-58
2021/05/08 08:03:53;;;;;;;2.07;1.50;;;11.60;67.90;11.00;97236.00;;;;5106773;28;20263;-58
2021/05/08 08:06:43;;;;;;;1.33;1.23;;;11.70;68.10;10.70;97229.00;;;;5101352;28;20199;-56
2021/05/08 08:09:31;;;;;;;2.37;2.17;;;11.70;62.80;10.90;97223.00;;;;5096736;28;20795;-57
2021/05/08 08:12:18;;;;;;;6.00;1.47;;;11.70;64.70;11.50;97236.00;;;;5097222;28;20233;-58
2021/05/08 08:15:10;;;;;;;3.43;1.47;;;11.80;66.90;11.70;97235.00;;;;5094561;28;20207;-57
2021/05/08 08:17:57;;;;;;;2.50;1.90;;;11.90;65.60;11.80;97232.00;;;;5100198;28;20211;-58
2021/05/08 08:20:46;;;;;;;5.87;1.37;;;12.10;66.10;12.00;97230.00;;;;5095797;28;20248;-58
2021/05/08 08:23:35;;;;;;;3.43;1.80;;;12.30;65.60;12.00;97234.00;;;;5086857;28;20215;-53
2021/05/08 08:26:23;;;;;;;1.50;1.37;;;12.40;64.30;12.20;97223.00;;;;5091472;28;20204;-54
2021/05/08 08:29:11;;;;;;;3.17;1.20;;;12.90;64.10;12.60;97231.00;;;;5096067;28;20237;-57
2021/05/08 08:31:59;;;;;;;2.70;1.40;;;12.60;65.30;12.50;97230.00;;;;5091353;28;20235;-57
2021/05/08 08:34:47;;;;;;;3.00;1.60;;;12.80;65.00;12.70;97225.00;;;;5098446;28;20685;-58
2021/05/08 08:37:35;;;;;;;2.90;1.20;;;13.00;62.80;12.60;97223.00;;;;5104340;28;20615;-58
2021/05/08 08:40:24;;;;;;;2.57;1.87;;;13.10;61.30;13.10;97231.00;;;;5093301;28;20209;-58
2021/05/08 08:43:13;;;;;;;3.83;1.20;;;13.20;62.00;13.00;97222.00;;;;5096937;28;20234;-58
2021/05/08 08:46:03;;;;;;;1.70;1.53;;;13.30;59.80;12.40;97235.00;;;;5103970;28;20199;-57
2021/05/08 08:48:52;;;;;;;1.93;1.60;;;13.40;58.40;12.60;97214.00;;;;5094452;28;20234;-59
2021/05/08 08:51:40;;;;;;;1.63;1.43;;;13.30;57.90;12.90;97218.00;;;;5101960;28;20222;-58
2021/05/08 08:54:28;;;;;;;1.83;1.70;;;13.30;59.60;12.70;97213.00;;;;5085429;28;20204;-57
2021/05/08 08:57:23;;;;;;;4.33;1.57;;;13.40;58.40;12.30;97206.00;;;;5095314;28;20210;-57
2021/05/08 09:00:15;;;;;;;4.60;1.50;;;13.20;55.80;13.20;97207.00;;;;5098532;28;20218;-57
2021/05/08 09:03:03;;;;;;;2.27;1.33;;;13.30;58.70;13.80;97213.00;;;;5104915;28;20230;-56
2021/05/08 09:05:51;;;;;;;3.00;1.20;;;13.60;60.50;14.10;97218.00;;;;5098193;28;20206;-59
2021/05/08 09:08:39;;;;;;;5.13;1.63;;;13.90;60.10;13.60;97204.00;;;;5084710;28;20685;-58
2021/05/08 09:11:27;;;;;;;2.37;1.20;;;14.10;57.80;13.80;97208.00;;;;5085658;28;20222;-55
2021/05/08 09:14:23;;;;;;;2.77;1.30;;;14.20;57.30;13.90;97203.00;;;;5102231;28;20271;-59
2021/05/08 09:17:15;;;;;;;2.50;1.43;;;14.30;55.70;14.00;97200.00;;;;5104635;28;20199;-55
2021/05/08 09:20:05;;;;;;;3.90;1.90;;;14.40;56.10;14.20;97197.00;;;;5096875;28;21174;-57
2021/05/08 09:22:53;;;;;;;3.10;1.20;;;14.50;56.30;14.80;97195.00;;;;5095031;28;20219;-57
2021/05/08 09:25:57;;;;;;;1.23;1.07;;;14.70;56.00;15.00;97200.00;;;;5099684;28;20207;-57
2021/05/08 09:28:54;;;;;;;1.83;0.97;;;14.90;55.80;15.40;97193.00;;;;5087635;28;20225;-59
2021/05/08 09:31:53;;;;;;;3.10;1.40;;;15.20;56.30;15.50;97196.00;;;;5093890;28;20725;-57
2021/05/08 09:34:41;;;;;;;3.23;1.33;;;15.40;56.10;15.20;97187.00;;;;5094072;28;20988;-57
2021/05/08 09:37:29;;;;;;;1.90;1.30;;;15.70;53.70;14.40;97179.00;;;;5095258;28;20210;-59
2021/05/08 09:40:26;;;;;;;1.50;1.40;;;15.60;52.50;14.10;97185.00;;;;5092810;28;20215;-56
2021/05/08 09:43:16;;;;;;;2.40;1.37;;;15.40;50.80;14.10;97176.00;;;;5089705;28;21233;-58
2021/05/08 09:46:05;;;;;;;1.20;1.00;;;15.20;49.60;15.10;97177.00;;;;5102564;28;20565;-58
2021/05/08 09:49:12;;;;;;;1.10;1.00;;;15.20;51.60;15.60;97177.00;;;;5094694;28;20589;-58
2021/05/08 09:52:01;;;;;;;3.23;1.30;;;15.50;52.80;15.90;97170.00;;;;5078884;28;20222;-57
2021/05/08 09:55:02;;;;;;;1.67;1.33;;;15.70;52.50;16.20;97177.00;;;;5085396;28;20207;-58
2021/05/08 09:58:06;;;;;;;1.90;1.27;;;16.00;54.50;16.20;97179.00;;;;5086647;27;20221;-58
2021/05/08 10:00:55;;;;;;;1.53;1.40;;;16.30;54.10;16.40;97168.00;;;;5085308;28;20202;-58
2021/05/08 10:03:43;;;;;;;2.23;1.80;;;16.50;53.70;16.90;97174.00;;;;5094996;28;20666;-55
2021/05/08 10:06:39;;;;;;;4.83;1.70;;;16.70;55.00;16.80;97161.00;;;;5094117;28;20223;-58
2021/05/08 10:09:27;;;;;;;2.33;2.10;;;16.90;54.60;15.50;97157.00;;;;5090284;28;20227;-58
2021/05/08 10:12:16;;;;;;;1.70;1.40;;;16.80;53.70;15.70;97142.00;;;;5093512;28;20835;-58
2021/05/08 10:15:06;;;;;;;1.53;1.43;;;16.40;54.30;16.00;97148.00;;;;5093696;28;20873;-57
2021/05/08 10:17:55;;;;;;;3.80;1.60;;;16.40;55.10;16.30;97143.00;;;;5085495;28;20203;-57
2021/05/08 10:20:44;;;;;;;4.47;1.40;;;16.60;56.50;16.60;97139.00;;;;5092334;28;20194;-58
2021/05/08 10:23:33;;;;;;;1.73;1.40;;;16.80;57.50;14.80;97117.00;;;;5094000;28;20199;-58
2021/05/08 10:26:22;;;;;;;1.27;1.17;;;16.50;54.40;16.30;97139.00;;;;5086174;28;20206;-58
2021/05/08 10:29:10;;;;;;;1.47;1.37;;;16.50;57.70;16.80;97132.00;;;;5089206;28;20238;-57
2021/05/08 10:32:01;;;;;;;3.20;1.77;;;16.70;57.70;17.30;97146.00;;;;5085258;28;20287;-58
2021/05/08 10:34:53;;;;;;;1.77;1.27;;;17.00;57.40;17.80;97134.00;;;;5085668;28;20290;-57
2021/05/08 10:38:19;;;;;;;5.07;1.37;;;17.30;57.50;16.40;97136.00;;;;5092564;28;20658;-58
2021/05/08 10:41:11;;;;;;;1.63;1.53;;;17.30;54.90;17.50;97123.00;;;;5094666;28;20691;-57
2021/05/08 10:43:59;;;;;;;4.97;1.33;;;17.50;56.50;16.50;97118.00;;;;5105317;28;20218;-58
2021/05/08 10:46:53;;;;;;;1.83;1.60;;;17.50;54.00;15.20;97132.00;;;;5104614;28;20202;-58
2021/05/08 10:49:41;;;;;;;1.93;1.27;;;17.10;53.30;15.40;97113.00;;;;5096035;28;20305;-57
2021/05/08 10:53:04;;;;;;;1.53;1.43;;;16.70;54.90;16.90;97115.00;;;;5105141;28;20226;-57
2021/05/08 10:55:56;;;;;;;1.83;1.43;;;16.80;56.10;16.80;97117.00;;;;5101608;28;20205;-58
2021/05/08 10:59:04;;;;;;;2.77;1.53;;;17.00;55.10;16.60;97107.00;;;;5102569;28;20211;-56
2021/05/08 11:01:52;;;;;;;1.70;1.60;;;17.20;54.10;17.10;97103.00;;;;5097094;28;20226;-58
2021/05/08 11:05:20;;;;;;;2.87;1.20;;;17.20;54.50;16.70;97104.00;;;;5104998;28;20190;-58
2021/05/08 11:08:44;;;;;;;5.43;2.00;;;17.30;51.70;18.30;97098.00;;;;5103989;28;20220;-60
2021/05/08 11:11:48;;;;;;;2.40;1.47;;;17.60;55.00;19.30;97104.00;;;;5108586;28;20632;-57
2021/05/08 11:14:56;;;;;;;5.90;1.40;;;18.20;56.30;19.30;97095.00;;;;5106415;27;20209;-59
2021/05/08 11:18:02;;;;;;;1.40;1.30;;;18.80;54.30;16.40;97088.00;;;;5104968;28;20198;-56
2021/05/08 11:20:50;;;;;;;1.40;1.30;;;18.40;50.70;17.70;97093.00;;;;5102312;28;20207;-58
2021/05/08 11:23:42;;;;;;;1.60;1.20;;;18.20;51.30;18.30;97084.00;;;;5104419;28;20685;-58
2021/05/08 11:26:42;;;;;;;1.00;0.90;;;18.40;53.00;19.00;97079.00;;;;5107737;28;20198;-57
2021/05/08 11:29:31;;;;;;;3.33;1.33;;;18.70;53.00;16.10;97056.00;;;;5105163;28;20226;-57
2021/05/08 11:32:20;;;;;;;2.07;1.20;;;18.40;48.70;17.40;97076.00;;;;5103232;28;20226;-57
2021/05/08 11:35:09;;;;;;;1.57;1.03;;;17.90;49.90;17.10;97072.00;;;;5102243;28;20213;-58
2021/05/08 11:38:21;;;;;;;2.30;1.10;;;17.90;50.70;16.60;97065.00;;;;5108328;28;20276;-58
2021/05/08 11:41:20;;;;;;;1.73;1.10;;;17.50;48.60;16.20;97058.00;;;;5087978;28;20222;-55
2021/05/08 11:44:09;;;;;;;1.43;1.20;;;17.20;49.60;16.10;97056.00;;;;5092239;28;20577;-59
2021/05/08 11:47:00;;;;;;;3.60;2.70;;;17.10;48.60;18.30;97071.00;;;;5088605;28;20218;-59
2021/05/08 11:49:56;;;;;;;1.73;1.20;;;17.50;52.20;19.50;97061.00;;;;5089350;28;20222;-59
2021/05/08 11:52:47;;;;;;;1.50;1.27;;;18.20;54.00;20.00;97067.00;;;;5087841;28;20233;-59
2021/05/08 11:55:44;;;;;;;1.93;1.47;;;18.90;53.40;19.90;97070.00;;;;5082331;28;20215;-60
2021/05/08 11:58:32;;;;;;;4.30;1.30;;;19.50;51.40;20.50;97068.00;;;;5083439;28;20196;-58
2021/05/08 12:01:20;;;;;;;2.80;1.30;;;19.90;51.60;20.40;97062.00;;;;5071261;28;20232;-60
2021/05/08 12:04:08;;;;;;;1.27;1.10;;;20.20;50.30;20.70;97066.00;;;;5083785;28;20199;-59
2021/05/08 12:07:05;;;;;;;1.67;1.10;;;20.50;50.30;20.50;97064.00;;;;5078296;28;20211;-60
2021/05/08 12:10:11;;;;;;;1.13;1.03;;;20.60;48.90;20.00;97055.00;;;;5088335;28;20573;-59
2021/05/08 12:12:59;;;;;;;1.20;1.10;;;20.60;47.40;21.60;97058.00;;;;5080431;28;20231;-60
2021/05/08 12:15:51;;;;;;;2.80;1.33;;;20.80;49.50;21.00;97064.00;;;;5079164;28;20203;-60
2021/05/08 12:18:40;;;;;;;2.70;1.20;;;21.00;48.80;20.30;97051.00;;;;5066536;28;20212;-61
2021/05/08 12:21:28;;;;;;;1.63;1.27;;;20.90;48.70;17.40;97031.00;;;;5069732;28;20223;-59
2021/05/08 12:24:18;;;;;;;1.27;0.90;;;20.30;44.70;16.90;97020.00;;;;5067406;28;20199;-59
2021/05/08 12:27:06;;;;;;;2.03;0.90;;;18.70;46.90;19.40;97035.00;;;;5077228;28;20706;-60
2021/05/08 12:29:56;;;;;;;1.17;1.07;;;18.70;48.80;20.60;97042.00;;;;5075986;28;20216;-60
2021/05/08 12:32:51;;;;;;;1.47;1.27;;;19.20;51.60;21.60;97046.00;;;;5081298;28;20222;-60
2021/05/08 12:35:39;;;;;;;1.70;1.13;;;19.90;51.40;21.00;97042.00;;;;5082592;28;20203;-60
2021/05/08 12:38:28;;;;;;;1.57;1.30;;;20.50;49.60;22.10;97037.00;;;;5086049;28;20206;-60
2021/05/08 12:41:29;;;;;;;1.17;0.97;;;20.90;49.30;20.80;97116.00;;;;5080479;28;20214;-59
2021/05/08 12:44:18;;;;;;;1.57;1.27;;;21.10;47.30;20.20;97075.00;;;;5085819;28;20191;-60